sensor_id;sensor_type;location;lat;lon;timestamp;temperature;humidity
12164;DHT22;6145;50.192;10.064;2023-05-07T00:01:42;17.20;62.80
12164;DHT22;6145;50.192;10.064;2023-05-07T00:04:09;17.10;62.70
12164;DHT22;6145;50.192;10.064;2023-05-07T00:06:36;17.20;63.10
12164;DHT22;6145;50.192;10.064;2023-05-07T00:09:03;17.10;62.90
12164;DHT22;6145;50.192;10.064;2023-05-07T00:11:30;17.00;63.40
12164;DHT22;6145;50.192;10.064;2023-05-07T00:13:59;17.10;63.30
12164;DHT22;6145;50.192;10.064;2023-05-07T00:16:26;17.00;63.70
12164;DHT22;6145;50.192;10.064;2023-05-07T00:18:53;17.00;63.60
12164;DHT22;6145;50.192;10.064;2023-05-07T00:21:22;16.90;63.80
12164;DHT22;6145;50.192;10.064;2023-05-07T00:23:52;16.80;64.10
12164;DHT22;6145;50.192;10.064;2023-05-07T00:26:18;16.80;64.00
12164;DHT22;6145;50.192;10.064;2023-05-07T00:28:46;16.80;65.20
12164;DHT22;6145;50.192;10.064;2023-05-07T00:31:14;16.70;64.60
12164;DHT22;6145;50.192;10.064;2023-05-07T00:33:41;16.70;64.80
12164;DHT22;6145;50.192;10.064;2023-05-07T00:36:08;16.60;64.50
12164;DHT22;6145;50.192;10.064;2023-05-07T00:38:35;16.70;64.70
12164;DHT22;6145;50.192;10.064;2023-05-07T00:41:02;16.70;65.10
12164;DHT22;6145;50.192;10.064;2023-05-07T00:43:28;16.90;65.20
12164;DHT22;6145;50.192;10.064;2023-05-07T00:45:56;16.70;64.70
12164;DHT22;6145;50.192;10.064;2023-05-07T00:48:25;16.70;65.10
12164;DHT22;6145;50.192;10.064;2023-05-07T00:50:52;16.50;64.90
12164;DHT22;6145;50.192;10.064;2023-05-07T00:53:19;16.70;65.40
12164;DHT22;6145;50.192;10.064;2023-05-07T00:55:47;17.10;65.70
12164;DHT22;6145;50.192;10.064;2023-05-07T00:58:14;16.60;65.40
12164;DHT22;6145;50.192;10.064;2023-05-07T01:00:41;16.60;65.40
12164;DHT22;6145;50.192;10.064;2023-05-07T01:03:08;16.60;65.70
12164;DHT22;6145;50.192;10.064;2023-05-07T01:05:37;16.50;65.80
12164;DHT22;6145;50.192;10.064;2023-05-07T01:08:04;16.50;66.10
12164;DHT22;6145;50.192;10.064;2023-05-07T01:10:32;16.50;65.90
12164;DHT22;6145;50.192;10.064;2023-05-07T01:12:59;16.60;66.70
12164;DHT22;6145;50.192;10.064;2023-05-07T01:15:26;16.50;66.10
12164;DHT22;6145;50.192;10.064;2023-05-07T01:17:53;16.60;66.00
12164;DHT22;6145;50.192;10.064;2023-05-07T01:20:22;16.70;66.20
12164;DHT22;6145;50.192;10.064;2023-05-07T01:22:51;16.50;66.20
12164;DHT22;6145;50.192;10.064;2023-05-07T01:25:20;16.50;66.50
12164;DHT22;6145;50.192;10.064;2023-05-07T01:27:47;16.50;66.60
12164;DHT22;6145;50.192;10.064;2023-05-07T01:30:16;16.40;66.60
12164;DHT22;6145;50.192;10.064;2023-05-07T01:32:50;16.40;67.00
12164;DHT22;6145;50.192;10.064;2023-05-07T01:35:30;16.40;67.10
12164;DHT22;6145;50.192;10.064;2023-05-07T01:38:00;16.40;67.30
12164;DHT22;6145;50.192;10.064;2023-05-07T01:40:30;16.40;67.60
12164;DHT22;6145;50.192;10.064;2023-05-07T01:42:57;16.50;67.40
12164;DHT22;6145;50.192;10.064;2023-05-07T01:45:25;16.30;67.30
12164;DHT22;6145;50.192;10.064;2023-05-07T01:47:52;16.30;67.60
12164;DHT22;6145;50.192;10.064;2023-05-07T01:50:20;16.30;67.60
12164;DHT22;6145;50.192;10.064;2023-05-07T01:52:49;16.30;67.80
12164;DHT22;6145;50.192;10.064;2023-05-07T01:55:18;16.30;68.20
12164;DHT22;6145;50.192;10.064;2023-05-07T01:57:45;16.20;68.40
12164;DHT22;6145;50.192;10.064;2023-05-07T02:00:12;15.10;67.20
12164;DHT22;6145;50.192;10.064;2023-05-07T02:02:39;16.20;68.10
12164;DHT22;6145;50.192;10.064;2023-05-07T02:05:06;16.20;68.20
12164;DHT22;6145;50.192;10.064;2023-05-07T02:07:34;16.20;68.10
12164;DHT22;6145;50.192;10.064;2023-05-07T02:10:00;16.20;68.10
12164;DHT22;6145;50.192;10.064;2023-05-07T02:12:30;16.20;68.30
12164;DHT22;6145;50.192;10.064;2023-05-07T02:14:57;16.20;68.30
12164;DHT22;6145;50.192;10.064;2023-05-07T02:17:24;16.20;68.40
12164;DHT22;6145;50.192;10.064;2023-05-07T02:19:51;16.20;68.80
12164;DHT22;6145;50.192;10.064;2023-05-07T02:22:18;16.20;68.90
12164;DHT22;6145;50.192;10.064;2023-05-07T02:24:47;16.20;69.30
12164;DHT22;6145;50.192;10.064;2023-05-07T02:27:16;16.10;69.00
12164;DHT22;6145;50.192;10.064;2023-05-07T02:29:44;16.00;69.50
12164;DHT22;6145;50.192;10.064;2023-05-07T02:32:11;16.00;69.60
12164;DHT22;6145;50.192;10.064;2023-05-07T02:34:38;16.00;69.80
12164;DHT22;6145;50.192;10.064;2023-05-07T02:37:05;16.40;69.90
12164;DHT22;6145;50.192;10.064;2023-05-07T02:39:32;16.00;69.80
12164;DHT22;6145;50.192;10.064;2023-05-07T02:41:58;16.00;69.90
12164;DHT22;6145;50.192;10.064;2023-05-07T02:44:27;16.00;69.70
12164;DHT22;6145;50.192;10.064;2023-05-07T02:46:58;16.10;70.00
12164;DHT22;6145;50.192;10.064;2023-05-07T02:49:25;16.40;70.10
12164;DHT22;6145;50.192;10.064;2023-05-07T02:51:52;16.00;69.40
12164;DHT22;6145;50.192;10.064;2023-05-07T02:54:18;16.00;69.40
12164;DHT22;6145;50.192;10.064;2023-05-07T02:56:45;16.10;69.70
12164;DHT22;6145;50.192;10.064;2023-05-07T02:59:12;16.00;69.50
12164;DHT22;6145;50.192;10.064;2023-05-07T03:01:39;16.00;69.60
12164;DHT22;6145;50.192;10.064;2023-05-07T03:04:10;15.90;69.60
12164;DHT22;6145;50.192;10.064;2023-05-07T03:06:41;15.90;69.70
12164;DHT22;6145;50.192;10.064;2023-05-07T03:09:08;15.80;69.80
12164;DHT22;6145;50.192;10.064;2023-05-07T03:11:35;15.80;70.10
12164;DHT22;6145;50.192;10.064;2023-05-07T03:14:02;15.70;69.90
12164;DHT22;6145;50.192;10.064;2023-05-07T03:16:29;15.80;70.00
12164;DHT22;6145;50.192;10.064;2023-05-07T03:18:55;15.80;70.20
12164;DHT22;6145;50.192;10.064;2023-05-07T03:21:24;15.80;70.00
12164;DHT22;6145;50.192;10.064;2023-05-07T03:23:52;15.80;70.30
12164;DHT22;6145;50.192;10.064;2023-05-07T03:26:19;15.90;70.10
12164;DHT22;6145;50.192;10.064;2023-05-07T03:28:46;15.90;70.20
12164;DHT22;6145;50.192;10.064;2023-05-07T03:31:14;15.70;70.20
12164;DHT22;6145;50.192;10.064;2023-05-07T03:33:51;15.70;70.00
12164;DHT22;6145;50.192;10.064;2023-05-07T03:36:18;15.70;70.20
12164;DHT22;6145;50.192;10.064;2023-05-07T03:38:49;15.70;70.90
12164;DHT22;6145;50.192;10.064;2023-05-07T03:41:16;15.90;70.80
12164;DHT22;6145;50.192;10.064;2023-05-07T03:43:43;15.60;70.30
12164;DHT22;6145;50.192;10.064;2023-05-07T03:46:10;15.50;70.20
12164;DHT22;6145;50.192;10.064;2023-05-07T03:48:37;15.60;70.30
12164;DHT22;6145;50.192;10.064;2023-05-07T03:51:04;15.60;70.10
12164;DHT22;6145;50.192;10.064;2023-05-07T03:53:31;15.60;70.00
12164;DHT22;6145;50.192;10.064;2023-05-07T03:56:04;15.60;70.60
12164;DHT22;6145;50.192;10.064;2023-05-07T03:58:31;15.60;70.30
12164;DHT22;6145;50.192;10.064;2023-05-07T04:00:58;15.50;70.60
12164;DHT22;6145;50.192;10.064;2023-05-07T05:35:15;15.50;72.40
12164;DHT22;6145;50.192;10.064;2023-05-07T05:37:42;15.50;72.70
12164;DHT22;6145;50.192;10.064;2023-05-07T05:40:10;15.50;72.50
12164;DHT22;6145;50.192;10.064;2023-05-07T05:42:37;15.60;72.50
12164;DHT22;6145;50.192;10.064;2023-05-07T05:45:05;15.70;72.50
12164;DHT22;6145;50.192;10.064;2023-05-07T05:47:32;15.60;72.50
12164;DHT22;6145;50.192;10.064;2023-05-07T05:49:59;15.60;72.60
12164;DHT22;6145;50.192;10.064;2023-05-07T05:52:27;15.60;72.40
12164;DHT22;6145;50.192;10.064;2023-05-07T05:54:54;15.70;72.80
12164;DHT22;6145;50.192;10.064;2023-05-07T05:57:21;15.70;72.50
12164;DHT22;6145;50.192;10.064;2023-05-07T05:59:48;15.80;72.30
12164;DHT22;6145;50.192;10.064;2023-05-07T06:02:14;15.70;72.60
12164;DHT22;6145;50.192;10.064;2023-05-07T06:04:41;15.80;73.30
12164;DHT22;6145;50.192;10.064;2023-05-07T06:07:08;15.80;72.50
12164;DHT22;6145;50.192;10.064;2023-05-07T06:09:37;15.90;72.40
12164;DHT22;6145;50.192;10.064;2023-05-07T06:12:04;15.90;72.00
12164;DHT22;6145;50.192;10.064;2023-05-07T06:14:31;15.90;71.90
12164;DHT22;6145;50.192;10.064;2023-05-07T06:16:58;15.90;71.90
12164;DHT22;6145;50.192;10.064;2023-05-07T06:19:25;16.00;72.00
12164;DHT22;6145;50.192;10.064;2023-05-07T06:21:53;16.00;71.80
12164;DHT22;6145;50.192;10.064;2023-05-07T06:24:21;16.10;71.80
12164;DHT22;6145;50.192;10.064;2023-05-07T06:26:50;16.10;72.10
12164;DHT22;6145;50.192;10.064;2023-05-07T06:29:17;16.10;71.80
12164;DHT22;6145;50.192;10.064;2023-05-07T06:31:44;16.10;71.80
12164;DHT22;6145;50.192;10.064;2023-05-07T06:34:11;16.20;71.80
12164;DHT22;6145;50.192;10.064;2023-05-07T06:36:39;16.20;71.50
12164;DHT22;6145;50.192;10.064;2023-05-07T06:39:06;16.30;71.50
12164;DHT22;6145;50.192;10.064;2023-05-07T06:41:33;16.30;71.60
12164;DHT22;6145;50.192;10.064;2023-05-07T06:44:02;17.10;72.10
12164;DHT22;6145;50.192;10.064;2023-05-07T06:46:30;16.30;72.00
12164;DHT22;6145;50.192;10.064;2023-05-07T06:48:58;16.30;71.10
12164;DHT22;6145;50.192;10.064;2023-05-07T06:51:25;16.40;71.20
12164;DHT22;6145;50.192;10.064;2023-05-07T06:53:52;16.40;71.00
12164;DHT22;6145;50.192;10.064;2023-05-07T06:56:19;16.40;71.30
12164;DHT22;6145;50.192;10.064;2023-05-07T06:58:57;16.40;71.30
12164;DHT22;6145;50.192;10.064;2023-05-07T07:01:25;16.60;71.40
12164;DHT22;6145;50.192;10.064;2023-05-07T07:03:52;16.50;71.00
12164;DHT22;6145;50.192;10.064;2023-05-07T07:06:19;16.60;71.10
12164;DHT22;6145;50.192;10.064;2023-05-07T07:08:46;16.60;70.80
12164;DHT22;6145;50.192;10.064;2023-05-07T07:11:14;16.70;70.90
12164;DHT22;6145;50.192;10.064;2023-05-07T07:13:41;16.70;70.90
12164;DHT22;6145;50.192;10.064;2023-05-07T07:16:12;16.70;70.60
12164;DHT22;6145;50.192;10.064;2023-05-07T07:18:41;16.80;70.80
12164;DHT22;6145;50.192;10.064;2023-05-07T07:21:08;16.80;70.60
12164;DHT22;6145;50.192;10.064;2023-05-07T07:23:35;16.80;70.40
12164;DHT22;6145;50.192;10.064;2023-05-07T07:26:02;16.80;70.10
12164;DHT22;6145;50.192;10.064;2023-05-07T07:28:28;16.90;70.10
12164;DHT22;6145;50.192;10.064;2023-05-07T07:30:55;16.90;70.00
12164;DHT22;6145;50.192;10.064;2023-05-07T07:33:22;17.00;70.00
12164;DHT22;6145;50.192;10.064;2023-05-07T07:35:50;17.20;70.10
12164;DHT22;6145;50.192;10.064;2023-05-07T07:38:17;17.10;69.90
12164;DHT22;6145;50.192;10.064;2023-05-07T07:40:44;17.10;70.00
12164;DHT22;6145;50.192;10.064;2023-05-07T07:43:11;17.20;70.00
12164;DHT22;6145;50.192;10.064;2023-05-07T07:45:38;17.30;69.90
12164;DHT22;6145;50.192;10.064;2023-05-07T07:48:05;17.30;69.70
12164;DHT22;6145;50.192;10.064;2023-05-07T07:50:32;17.30;69.70
12164;DHT22;6145;50.192;10.064;2023-05-07T07:53:01;17.30;69.40
12164;DHT22;6145;50.192;10.064;2023-05-07T07:55:28;17.40;69.50
12164;DHT22;6145;50.192;10.064;2023-05-07T07:57:56;17.40;69.00
12164;DHT22;6145;50.192;10.064;2023-05-07T08:00:23;17.50;69.70
12164;DHT22;6145;50.192;10.064;2023-05-07T08:02:50;17.50;69.10
12164;DHT22;6145;50.192;10.064;2023-05-07T08:05:17;17.50;68.80
12164;DHT22;6145;50.192;10.064;2023-05-07T08:07:45;17.60;68.90
12164;DHT22;6145;50.192;10.064;2023-05-07T08:10:18;17.60;68.90
12164;DHT22;6145;50.192;10.064;2023-05-07T08:12:46;17.70;69.00
12164;DHT22;6145;50.192;10.064;2023-05-07T08:15:14;17.70;68.70
12164;DHT22;6145;50.192;10.064;2023-05-07T08:17:43;17.80;68.60
12164;DHT22;6145;50.192;10.064;2023-05-07T08:20:11;17.80;68.00
12164;DHT22;6145;50.192;10.064;2023-05-07T08:22:39;17.90;68.20
12164;DHT22;6145;50.192;10.064;2023-05-07T08:25:06;17.90;68.50
12164;DHT22;6145;50.192;10.064;2023-05-07T08:27:35;17.90;68.50
12164;DHT22;6145;50.192;10.064;2023-05-07T08:30:02;18.00;67.60
12164;DHT22;6145;50.192;10.064;2023-05-07T08:32:30;17.80;67.20
12164;DHT22;6145;50.192;10.064;2023-05-07T08:34:59;18.10;67.50
12164;DHT22;6145;50.192;10.064;2023-05-07T08:37:26;18.10;68.40
12164;DHT22;6145;50.192;10.064;2023-05-07T08:39:53;18.20;68.50
12164;DHT22;6145;50.192;10.064;2023-05-07T08:42:24;18.30;68.40
12164;DHT22;6145;50.192;10.064;2023-05-07T08:44:54;18.40;68.30
12164;DHT22;6145;50.192;10.064;2023-05-07T08:47:29;18.40;67.10
12164;DHT22;6145;50.192;10.064;2023-05-07T08:49:56;18.50;66.40
12164;DHT22;6145;50.192;10.064;2023-05-07T08:52:23;18.40;67.10
12164;DHT22;6145;50.192;10.064;2023-05-07T08:54:50;18.50;67.10
12164;DHT22;6145;50.192;10.064;2023-05-07T08:57:17;18.60;66.20
12164;DHT22;6145;50.192;10.064;2023-05-07T08:59:45;18.60;66.40
12164;DHT22;6145;50.192;10.064;2023-05-07T09:02:13;18.60;66.80
12164;DHT22;6145;50.192;10.064;2023-05-07T09:04:42;18.70;67.50
12164;DHT22;6145;50.192;10.064;2023-05-07T09:07:09;18.80;67.50
12164;DHT22;6145;50.192;10.064;2023-05-07T09:09:37;19.00;66.90
12164;DHT22;6145;50.192;10.064;2023-05-07T09:12:04;19.10;67.30
12164;DHT22;6145;50.192;10.064;2023-05-07T09:14:31;19.20;67.60
12164;DHT22;6145;50.192;10.064;2023-05-07T09:16:58;19.30;67.20
12164;DHT22;6145;50.192;10.064;2023-05-07T09:19:27;19.30;67.10
12164;DHT22;6145;50.192;10.064;2023-05-07T09:22:00;19.50;67.00
12164;DHT22;6145;50.192;10.064;2023-05-07T09:24:28;19.60;65.80
12164;DHT22;6145;50.192;10.064;2023-05-07T09:26:59;19.50;65.70
12164;DHT22;6145;50.192;10.064;2023-05-07T09:29:27;19.70;66.00
12164;DHT22;6145;50.192;10.064;2023-05-07T09:31:54;19.80;66.00
12164;DHT22;6145;50.192;10.064;2023-05-07T09:34:21;19.60;65.90
12164;DHT22;6145;50.192;10.064;2023-05-07T09:36:49;19.90;65.00
12164;DHT22;6145;50.192;10.064;2023-05-07T09:39:16;20.00;64.30
12164;DHT22;6145;50.192;10.064;2023-05-07T09:41:44;20.00;65.10
12164;DHT22;6145;50.192;10.064;2023-05-07T09:44:11;20.10;66.00
12164;DHT22;6145;50.192;10.064;2023-05-07T09:46:39;20.20;65.90
12164;DHT22;6145;50.192;10.064;2023-05-07T09:49:12;20.30;64.50
12164;DHT22;6145;50.192;10.064;2023-05-07T09:51:45;20.30;64.20
12164;DHT22;6145;50.192;10.064;2023-05-07T09:54:15;20.40;65.30
12164;DHT22;6145;50.192;10.064;2023-05-07T09:56:43;20.50;63.50
12164;DHT22;6145;50.192;10.064;2023-05-07T09:59:13;20.60;63.40
12164;DHT22;6145;50.192;10.064;2023-05-07T10:01:41;20.80;65.50
12164;DHT22;6145;50.192;10.064;2023-05-07T10:04:08;20.80;63.80
12164;DHT22;6145;50.192;10.064;2023-05-07T10:06:35;21.00;63.70
12164;DHT22;6145;50.192;10.064;2023-05-07T10:09:04;21.20;62.40
12164;DHT22;6145;50.192;10.064;2023-05-07T10:11:35;21.30;62.70
12164;DHT22;6145;50.192;10.064;2023-05-07T10:14:03;21.30;62.10
12164;DHT22;6145;50.192;10.064;2023-05-07T10:16:32;21.80;64.00
12164;DHT22;6145;50.192;10.064;2023-05-07T10:19:03;21.80;64.80
12164;DHT22;6145;50.192;10.064;2023-05-07T10:21:31;22.00;62.70
12164;DHT22;6145;50.192;10.064;2023-05-07T10:24:04;22.10;63.50
12164;DHT22;6145;50.192;10.064;2023-05-07T10:26:35;22.40;62.90
12164;DHT22;6145;50.192;10.064;2023-05-07T10:29:07;22.50;61.60
12164;DHT22;6145;50.192;10.064;2023-05-07T10:31:55;22.60;62.60
12164;DHT22;6145;50.192;10.064;2023-05-07T10:34:28;22.90;63.10
12164;DHT22;6145;50.192;10.064;2023-05-07T10:36:57;22.90;61.80
12164;DHT22;6145;50.192;10.064;2023-05-07T10:39:24;23.10;59.30
12164;DHT22;6145;50.192;10.064;2023-05-07T10:41:53;23.30;60.00
12164;DHT22;6145;50.192;10.064;2023-05-07T10:44:26;23.50;60.60
12164;DHT22;6145;50.192;10.064;2023-05-07T10:47:10;23.60;60.70
12164;DHT22;6145;50.192;10.064;2023-05-07T10:52:43;23.90;59.40
12164;DHT22;6145;50.192;10.064;2023-05-07T10:55:21;24.00;60.00
12164;DHT22;6145;50.192;10.064;2023-05-07T10:57:52;24.30;60.90
12164;DHT22;6145;50.192;10.064;2023-05-07T11:00:42;24.50;60.20
12164;DHT22;6145;50.192;10.064;2023-05-07T11:03:10;24.70;59.80
12164;DHT22;6145;50.192;10.064;2023-05-07T11:05:38;24.80;59.10
12164;DHT22;6145;50.192;10.064;2023-05-07T11:08:05;24.90;58.80
12164;DHT22;6145;50.192;10.064;2023-05-07T11:10:48;25.10;57.90
12164;DHT22;6145;50.192;10.064;2023-05-07T11:13:17;25.20;56.30
12164;DHT22;6145;50.192;10.064;2023-05-07T11:15:45;25.20;54.00
12164;DHT22;6145;50.192;10.064;2023-05-07T11:18:13;25.10;54.30
12164;DHT22;6145;50.192;10.064;2023-05-07T11:20:51;25.10;55.00
12164;DHT22;6145;50.192;10.064;2023-05-07T11:26:43;25.40;53.60
12164;DHT22;6145;50.192;10.064;2023-05-07T11:29:16;25.10;50.20
12164;DHT22;6145;50.192;10.064;2023-05-07T11:31:43;25.10;53.50
12164;DHT22;6145;50.192;10.064;2023-05-07T11:34:11;25.00;53.70
12164;DHT22;6145;50.192;10.064;2023-05-07T11:36:46;25.20;54.50
12164;DHT22;6145;50.192;10.064;2023-05-07T11:39:29;25.50;52.70
12164;DHT22;6145;50.192;10.064;2023-05-07T11:41:58;25.60;53.70
12164;DHT22;6145;50.192;10.064;2023-05-07T11:44:42;25.90;53.00
12164;DHT22;6145;50.192;10.064;2023-05-07T11:47:10;26.20;52.80
12164;DHT22;6145;50.192;10.064;2023-05-07T11:49:37;25.70;53.40
12164;DHT22;6145;50.192;10.064;2023-05-07T11:52:05;25.80;51.20
12164;DHT22;6145;50.192;10.064;2023-05-07T11:54:36;25.70;50.80
12164;DHT22;6145;50.192;10.064;2023-05-07T11:57:03;25.50;51.40
12164;DHT22;6145;50.192;10.064;2023-05-07T11:59:38;25.50;50.50
12164;DHT22;6145;50.192;10.064;2023-05-07T12:02:06;25.60;51.50
12164;DHT22;6145;50.192;10.064;2023-05-07T12:04:34;25.60;50.70
12164;DHT22;6145;50.192;10.064;2023-05-07T12:07:01;25.50;50.50
12164;DHT22;6145;50.192;10.064;2023-05-07T12:09:28;25.40;50.20
12164;DHT22;6145;50.192;10.064;2023-05-07T12:11:57;25.60;51.40
12164;DHT22;6145;50.192;10.064;2023-05-07T12:14:27;25.60;50.30
12164;DHT22;6145;50.192;10.064;2023-05-07T12:16:56;25.80;52.20
12164;DHT22;6145;50.192;10.064;2023-05-07T12:19:23;25.90;51.20
12164;DHT22;6145;50.192;10.064;2023-05-07T12:21:53;26.10;51.40
12164;DHT22;6145;50.192;10.064;2023-05-07T12:24:20;26.20;51.50
12164;DHT22;6145;50.192;10.064;2023-05-07T12:26:48;26.10;48.80
12164;DHT22;6145;50.192;10.064;2023-05-07T12:29:15;26.00;48.40
12164;DHT22;6145;50.192;10.064;2023-05-07T12:31:43;25.90;50.50
12164;DHT22;6145;50.192;10.064;2023-05-07T12:34:12;25.90;50.00
12164;DHT22;6145;50.192;10.064;2023-05-07T12:36:39;25.90;50.10
12164;DHT22;6145;50.192;10.064;2023-05-07T12:39:07;25.70;48.70
12164;DHT22;6145;50.192;10.064;2023-05-07T12:41:36;25.80;49.90
12164;DHT22;6145;50.192;10.064;2023-05-07T12:44:19;25.60;48.70
12164;DHT22;6145;50.192;10.064;2023-05-07T12:46:48;25.40;48.90
12164;DHT22;6145;50.192;10.064;2023-05-07T12:49:16;25.40;50.00
12164;DHT22;6145;50.192;10.064;2023-05-07T12:51:44;25.60;50.10
12164;DHT22;6145;50.192;10.064;2023-05-07T12:54:13;25.60;49.40
12164;DHT22;6145;50.192;10.064;2023-05-07T12:56:42;25.60;48.90
12164;DHT22;6145;50.192;10.064;2023-05-07T12:59:09;25.60;49.00
12164;DHT22;6145;50.192;10.064;2023-05-07T13:01:36;25.70;48.50
12164;DHT22;6145;50.192;10.064;2023-05-07T13:04:03;25.60;48.00
12164;DHT22;6145;50.192;10.064;2023-05-07T13:06:38;25.60;48.60
12164;DHT22;6145;50.192;10.064;2023-05-07T13:09:06;25.60;49.00
12164;DHT22;6145;50.192;10.064;2023-05-07T13:11:33;25.70;49.10
12164;DHT22;6145;50.192;10.064;2023-05-07T13:14:04;25.80;48.50
12164;DHT22;6145;50.192;10.064;2023-05-07T13:16:31;25.80;47.50
12164;DHT22;6145;50.192;10.064;2023-05-07T13:18:58;25.80;48.30
12164;DHT22;6145;50.192;10.064;2023-05-07T13:21:25;25.80;48.90
12164;DHT22;6145;50.192;10.064;2023-05-07T13:23:54;25.90;48.90
12164;DHT22;6145;50.192;10.064;2023-05-07T13:26:22;26.00;47.80
12164;DHT22;6145;50.192;10.064;2023-05-07T13:28:49;26.00;47.50
12164;DHT22;6145;50.192;10.064;2023-05-07T13:31:17;26.00;47.00
12164;DHT22;6145;50.192;10.064;2023-05-07T13:33:44;26.00;47.40
12164;DHT22;6145;50.192;10.064;2023-05-07T13:36:12;26.00;46.10
12164;DHT22;6145;50.192;10.064;2023-05-07T13:38:40;26.00;45.70
12164;DHT22;6145;50.192;10.064;2023-05-07T13:41:08;25.80;46.50
12164;DHT22;6145;50.192;10.064;2023-05-07T13:43:37;25.80;47.20
12164;DHT22;6145;50.192;10.064;2023-05-07T13:46:04;25.80;47.80
12164;DHT22;6145;50.192;10.064;2023-05-07T13:48:31;26.00;46.80
12164;DHT22;6145;50.192;10.064;2023-05-07T13:50:58;26.30;47.20
12164;DHT22;6145;50.192;10.064;2023-05-07T13:53:25;26.30;47.70
12164;DHT22;6145;50.192;10.064;2023-05-07T13:55:52;26.40;48.40
12164;DHT22;6145;50.192;10.064;2023-05-07T13:58:29;26.60;47.70
12164;DHT22;6145;50.192;10.064;2023-05-07T14:00:56;26.80;46.30
12164;DHT22;6145;50.192;10.064;2023-05-07T14:03:23;26.90;47.20
12164;DHT22;6145;50.192;10.064;2023-05-07T14:05:49;26.90;47.60
12164;DHT22;6145;50.192;10.064;2023-05-07T14:08:17;26.90;45.30
12164;DHT22;6145;50.192;10.064;2023-05-07T14:10:45;27.00;47.50
12164;DHT22;6145;50.192;10.064;2023-05-07T14:13:12;26.90;46.40
12164;DHT22;6145;50.192;10.064;2023-05-07T14:15:40;26.80;45.00
12164;DHT22;6145;50.192;10.064;2023-05-07T14:18:11;26.60;46.90
12164;DHT22;6145;50.192;10.064;2023-05-07T14:20:38;26.50;46.40
12164;DHT22;6145;50.192;10.064;2023-05-07T14:23:05;26.50;47.80
12164;DHT22;6145;50.192;10.064;2023-05-07T14:25:40;26.50;46.90
12164;DHT22;6145;50.192;10.064;2023-05-07T14:28:09;26.60;46.70
12164;DHT22;6145;50.192;10.064;2023-05-07T14:30:36;26.40;46.10
12164;DHT22;6145;50.192;10.064;2023-05-07T14:33:04;26.30;45.60
12164;DHT22;6145;50.192;10.064;2023-05-07T14:35:32;26.00;46.80
12164;DHT22;6145;50.192;10.064;2023-05-07T14:37:59;25.90;47.00
12164;DHT22;6145;50.192;10.064;2023-05-07T14:40:27;26.10;48.00
12164;DHT22;6145;50.192;10.064;2023-05-07T14:42:54;26.40;48.60
12164;DHT22;6145;50.192;10.064;2023-05-07T14:45:22;26.00;47.20
12164;DHT22;6145;50.192;10.064;2023-05-07T14:47:49;25.90;48.50
12164;DHT22;6145;50.192;10.064;2023-05-07T14:50:18;26.00;47.30
12164;DHT22;6145;50.192;10.064;2023-05-07T14:52:45;25.90;46.90
12164;DHT22;6145;50.192;10.064;2023-05-07T14:55:12;25.90;46.80
12164;DHT22;6145;50.192;10.064;2023-05-07T14:57:39;25.90;47.50
12164;DHT22;6145;50.192;10.064;2023-05-07T15:00:07;25.90;47.40
12164;DHT22;6145;50.192;10.064;2023-05-07T15:02:36;25.90;46.50
12164;DHT22;6145;50.192;10.064;2023-05-07T15:05:06;25.80;45.60
12164;DHT22;6145;50.192;10.064;2023-05-07T15:07:34;25.80;47.10
12164;DHT22;6145;50.192;10.064;2023-05-07T15:10:01;25.80;47.00
12164;DHT22;6145;50.192;10.064;2023-05-07T15:12:28;25.80;47.50
12164;DHT22;6145;50.192;10.064;2023-05-07T15:14:55;25.80;48.80
12164;DHT22;6145;50.192;10.064;2023-05-07T15:17:23;26.30;49.40
12164;DHT22;6145;50.192;10.064;2023-05-07T15:19:50;25.90;48.70
12164;DHT22;6145;50.192;10.064;2023-05-07T15:22:17;26.00;47.40
12164;DHT22;6145;50.192;10.064;2023-05-07T15:24:48;25.90;47.60
12164;DHT22;6145;50.192;10.064;2023-05-07T15:27:15;26.30;48.40
12164;DHT22;6145;50.192;10.064;2023-05-07T15:29:43;25.70;48.20
12164;DHT22;6145;50.192;10.064;2023-05-07T15:32:09;25.80;48.50
12164;DHT22;6145;50.192;10.064;2023-05-07T15:34:37;25.80;48.00
12164;DHT22;6145;50.192;10.064;2023-05-07T15:37:04;25.80;47.60
12164;DHT22;6145;50.192;10.064;2023-05-07T15:39:32;25.70;48.00
12164;DHT22;6145;50.192;10.064;2023-05-07T15:42:00;25.80;48.10
12164;DHT22;6145;50.192;10.064;2023-05-07T15:44:28;25.80;49.10
12164;DHT22;6145;50.192;10.064;2023-05-07T15:46:58;25.70;47.70
12164;DHT22;6145;50.192;10.064;2023-05-07T15:49:25;25.60;46.90
12164;DHT22;6145;50.192;10.064;2023-05-07T15:51:55;25.60;47.10
12164;DHT22;6145;50.192;10.064;2023-05-07T15:54:22;25.50;47.50
12164;DHT22;6145;50.192;10.064;2023-05-07T15:56:49;25.40;47.40
12164;DHT22;6145;50.192;10.064;2023-05-07T15:59:18;25.30;46.80
12164;DHT22;6145;50.192;10.064;2023-05-07T16:01:49;25.30;47.50
12164;DHT22;6145;50.192;10.064;2023-05-07T16:04:16;25.40;47.90
12164;DHT22;6145;50.192;10.064;2023-05-07T16:06:43;25.20;46.70
12164;DHT22;6145;50.192;10.064;2023-05-07T16:09:11;25.90;48.70
12164;DHT22;6145;50.192;10.064;2023-05-07T16:11:39;25.10;46.90
12164;DHT22;6145;50.192;10.064;2023-05-07T16:14:06;25.10;47.20
12164;DHT22;6145;50.192;10.064;2023-05-07T16:16:39;24.90;47.40
12164;DHT22;6145;50.192;10.064;2023-05-07T16:19:06;25.00;47.20
12164;DHT22;6145;50.192;10.064;2023-05-07T16:21:33;24.80;47.20
12164;DHT22;6145;50.192;10.064;2023-05-07T16:24:00;25.10;47.00
12164;DHT22;6145;50.192;10.064;2023-05-07T16:26:27;24.70;47.10
12164;DHT22;6145;50.192;10.064;2023-05-07T16:28:54;24.60;47.30
12164;DHT22;6145;50.192;10.064;2023-05-07T16:31:20;24.50;48.10
12164;DHT22;6145;50.192;10.064;2023-05-07T16:33:49;24.50;47.70
12164;DHT22;6145;50.192;10.064;2023-05-07T16:36:16;24.60;47.60
12164;DHT22;6145;50.192;10.064;2023-05-07T16:38:43;24.40;48.60
12164;DHT22;6145;50.192;10.064;2023-05-07T16:41:10;24.40;48.70
12164;DHT22;6145;50.192;10.064;2023-05-07T16:43:40;24.40;48.10
12164;DHT22;6145;50.192;10.064;2023-05-07T16:46:07;24.30;49.30
12164;DHT22;6145;50.192;10.064;2023-05-07T16:48:34;24.30;49.30
12164;DHT22;6145;50.192;10.064;2023-05-07T16:51:02;24.30;49.60
12164;DHT22;6145;50.192;10.064;2023-05-07T16:53:29;24.20;48.70
12164;DHT22;6145;50.192;10.064;2023-05-07T16:55:56;23.90;49.20
12164;DHT22;6145;50.192;10.064;2023-05-07T16:58:24;24.00;48.50
12164;DHT22;6145;50.192;10.064;2023-05-07T17:00:53;23.70;49.20
12164;DHT22;6145;50.192;10.064;2023-05-07T17:03:22;23.80;49.90
12164;DHT22;6145;50.192;10.064;2023-05-07T17:05:49;23.70;50.10
12164;DHT22;6145;50.192;10.064;2023-05-07T17:08:19;23.70;50.50
12164;DHT22;6145;50.192;10.064;2023-05-07T17:10:46;23.50;50.60
12164;DHT22;6145;50.192;10.064;2023-05-07T17:13:12;23.30;50.80
12164;DHT22;6145;50.192;10.064;2023-05-07T17:15:39;23.60;51.40